sensor_id;sensor_type;location;lat;lon;timestamp;P1;durP1;ratioP1;P2;durP2;ratioP2
24663;SDS011;12791;50.992;13.788;2024-02-21T00:02:19;10.50;;;3.47;;
24663;SDS011;12791;50.992;13.788;2024-02-21T00:04:45;9.65;;;3.05;;
24663;SDS011;12791;50.992;13.788;2024-02-21T00:07:12;7.07;;;2.92;;
24663;SDS011;12791;50.992;13.788;2024-02-21T00:09:40;9.00;;;3.72;;
24663;SDS011;12791;50.992;13.788;2024-02-21T00:12:07;11.77;;;3.70;;
24663;SDS011;12791;50.992;13.788;2024-02-21T00:14:34;9.65;;;3.28;;
24663;SDS011;12791;50.992;13.788;2024-02-21T00:17:00;12.23;;;3.63;;
24663;SDS011;12791;50.992;13.788;2024-02-21T00:19:27;6.90;;;2.47;;
24663;SDS011;12791;50.992;13.788;2024-02-21T00:21:53;9.40;;;3.42;;
24663;SDS011;12791;50.992;13.788;2024-02-21T00:24:20;11.02;;;2.90;;
24663;SDS011;12791;50.992;13.788;2024-02-21T00:26:48;9.90;;;2.97;;
24663;SDS011;12791;50.992;13.788;2024-02-21T00:29:14;12.10;;;3.20;;
24663;SDS011;12791;50.992;13.788;2024-02-21T00:31:41;11.45;;;3.40;;
24663;SDS011;12791;50.992;13.788;2024-02-21T00:34:09;10.20;;;3.53;;
24663;SDS011;12791;50.992;13.788;2024-02-21T00:36:37;11.48;;;3.20;;
24663;SDS011;12791;50.992;13.788;2024-02-21T00:39:04;11.77;;;3.05;;
24663;SDS011;12791;50.992;13.788;2024-02-21T00:41:31;8.95;;;2.83;;
24663;SDS011;12791;50.992;13.788;2024-02-21T00:43:59;12.73;;;2.92;;
24663;SDS011;12791;50.992;13.788;2024-02-21T00:46:26;9.73;;;3.03;;
24663;SDS011;12791;50.992;13.788;2024-02-21T00:48:52;7.70;;;2.75;;
24663;SDS011;12791;50.992;13.788;2024-02-21T00:51:19;8.93;;;2.97;;
24663;SDS011;12791;50.992;13.788;2024-02-21T00:53:46;10.90;;;2.95;;
24663;SDS011;12791;50.992;13.788;2024-02-21T00:56:12;8.35;;;2.40;;
24663;SDS011;12791;50.992;13.788;2024-02-21T00:58:39;10.48;;;2.78;;
24663;SDS011;12791;50.992;13.788;2024-02-21T01:01:07;9.40;;;2.80;;
24663;SDS011;12791;50.992;13.788;2024-02-21T01:03:33;11.88;;;2.90;;
24663;SDS011;12791;50.992;13.788;2024-02-21T01:06:00;13.98;;;3.00;;
24663;SDS011;12791;50.992;13.788;2024-02-21T01:08:27;11.75;;;3.20;;
24663;SDS011;12791;50.992;13.788;2024-02-21T01:10:54;9.05;;;3.10;;
24663;SDS011;12791;50.992;13.788;2024-02-21T01:13:20;9.93;;;3.28;;
24663;SDS011;12791;50.992;13.788;2024-02-21T01:15:47;9.57;;;3.10;;
24663;SDS011;12791;50.992;13.788;2024-02-21T01:18:15;9.50;;;2.92;;
24663;SDS011;12791;50.992;13.788;2024-02-21T01:20:41;8.52;;;2.67;;
24663;SDS011;12791;50.992;13.788;2024-02-21T01:23:08;6.63;;;2.78;;
24663;SDS011;12791;50.992;13.788;2024-02-21T01:25:35;6.90;;;2.78;;
24663;SDS011;12791;50.992;13.788;2024-02-21T01:28:02;7.30;;;2.55;;
24663;SDS011;12791;50.992;13.788;2024-02-21T01:30:28;10.35;;;2.70;;
24663;SDS011;12791;50.992;13.788;2024-02-21T01:32:55;9.32;;;3.10;;
24663;SDS011;12791;50.992;13.788;2024-02-21T01:35:23;10.50;;;2.78;;
24663;SDS011;12791;50.992;13.788;2024-02-21T01:37:49;7.25;;;2.47;;
24663;SDS011;12791;50.992;13.788;2024-02-21T01:40:16;8.98;;;2.85;;
24663;SDS011;12791;50.992;13.788;2024-02-21T01:42:43;8.98;;;2.42;;
24663;SDS011;12791;50.992;13.788;2024-02-21T01:45:10;8.45;;;2.70;;
24663;SDS011;12791;50.992;13.788;2024-02-21T01:47:36;8.77;;;2.78;;
24663;SDS011;12791;50.992;13.788;2024-02-21T01:50:03;12.23;;;3.50;;
24663;SDS011;12791;50.992;13.788;2024-02-21T01:52:32;9.15;;;3.20;;
24663;SDS011;12791;50.992;13.788;2024-02-21T01:55:01;11.30;;;3.47;;
24663;SDS011;12791;50.992;13.788;2024-02-21T01:57:28;9.48;;;2.97;;
24663;SDS011;12791;50.992;13.788;2024-02-21T01:59:54;9.80;;;2.97;;
24663;SDS011;12791;50.992;13.788;2024-02-21T02:02:21;9.02;;;3.08;;
24663;SDS011;12791;50.992;13.788;2024-02-21T02:04:48;10.15;;;2.70;;
24663;SDS011;12791;50.992;13.788;2024-02-21T02:07:15;6.57;;;2.58;;
24663;SDS011;12791;50.992;13.788;2024-02-21T02:09:43;8.60;;;2.67;;
24663;SDS011;12791;50.992;13.788;2024-02-21T02:12:10;7.72;;;2.72;;
24663;SDS011;12791;50.992;13.788;2024-02-21T02:14:36;8.55;;;2.55;;
24663;SDS011;12791;50.992;13.788;2024-02-21T02:17:03;12.80;;;3.67;;
24663;SDS011;12791;50.992;13.788;2024-02-21T02:19:30;10.23;;;3.17;;
24663;SDS011;12791;50.992;13.788;2024-02-21T02:21:59;8.50;;;2.92;;
24663;SDS011;12791;50.992;13.788;2024-02-21T02:24:33;9.00;;;2.83;;
24663;SDS011;12791;50.992;13.788;2024-02-21T02:26:59;11.02;;;3.30;;
24663;SDS011;12791;50.992;13.788;2024-02-21T02:29:26;7.78;;;2.88;;
24663;SDS011;12791;50.992;13.788;2024-02-21T02:31:52;9.88;;;3.13;;
24663;SDS011;12791;50.992;13.788;2024-02-21T02:34:19;6.50;;;2.70;;
24663;SDS011;12791;50.992;13.788;2024-02-21T02:36:45;10.02;;;3.00;;
24663;SDS011;12791;50.992;13.788;2024-02-21T02:39:13;10.48;;;3.67;;
24663;SDS011;12791;50.992;13.788;2024-02-21T02:41:41;6.80;;;3.33;;
24663;SDS011;12791;50.992;13.788;2024-02-21T02:44:08;11.00;;;3.88;;
24663;SDS011;12791;50.992;13.788;2024-02-21T02:46:34;8.02;;;3.03;;
24663;SDS011;12791;50.992;13.788;2024-02-21T02:49:01;9.63;;;2.53;;
24663;SDS011;12791;50.992;13.788;2024-02-21T02:51:27;7.05;;;2.53;;
24663;SDS011;12791;50.992;13.788;2024-02-21T02:53:54;8.40;;;2.88;;
24663;SDS011;12791;50.992;13.788;2024-02-21T02:56:22;7.88;;;2.65;;
24663;SDS011;12791;50.992;13.788;2024-02-21T02:58:50;9.60;;;2.50;;
24663;SDS011;12791;50.992;13.788;2024-02-21T03:01:16;8.13;;;2.70;;
24663;SDS011;12791;50.992;13.788;2024-02-21T03:03:43;11.13;;;3.00;;
24663;SDS011;12791;50.992;13.788;2024-02-21T03:06:10;5.45;;;2.65;;
24663;SDS011;12791;50.992;13.788;2024-02-21T03:08:37;8.93;;;3.15;;
24663;SDS011;12791;50.992;13.788;2024-02-21T03:11:04;8.38;;;3.40;;
24663;SDS011;12791;50.992;13.788;2024-02-21T03:13:31;7.82;;;3.00;;
24663;SDS011;12791;50.992;13.788;2024-02-21T03:15:59;10.18;;;3.28;;
24663;SDS011;12791;50.992;13.788;2024-02-21T03:18:26;9.63;;;3.13;;
24663;SDS011;12791;50.992;13.788;2024-02-21T03:20:52;8.75;;;2.72;;
24663;SDS011;12791;50.992;13.788;2024-02-21T03:23:19;9.15;;;3.10;;
24663;SDS011;12791;50.992;13.788;2024-02-21T03:25:46;10.68;;;2.92;;
24663;SDS011;12791;50.992;13.788;2024-02-21T03:28:12;9.77;;;2.85;;
24663;SDS011;12791;50.992;13.788;2024-02-21T03:30:39;10.57;;;3.08;;
24663;SDS011;12791;50.992;13.788;2024-02-21T03:33:07;8.15;;;3.05;;
24663;SDS011;12791;50.992;13.788;2024-02-21T03:35:33;9.88;;;3.33;;
24663;SDS011;12791;50.992;13.788;2024-02-21T03:38:00;5.65;;;3.10;;
24663;SDS011;12791;50.992;13.788;2024-02-21T03:40:26;10.07;;;3.28;;
24663;SDS011;12791;50.992;13.788;2024-02-21T03:42:53;7.30;;;2.67;;
24663;SDS011;12791;50.992;13.788;2024-02-21T03:45:20;9.05;;;3.45;;
24663;SDS011;12791;50.992;13.788;2024-02-21T03:47:46;7.05;;;2.78;;
24663;SDS011;12791;50.992;13.788;2024-02-21T03:50:14;6.53;;;2.85;;
24663;SDS011;12791;50.992;13.788;2024-02-21T03:52:41;8.98;;;2.63;;
24663;SDS011;12791;50.992;13.788;2024-02-21T03:55:08;7.38;;;3.40;;
24663;SDS011;12791;50.992;13.788;2024-02-21T03:57:35;8.32;;;2.95;;
24663;SDS011;12791;50.992;13.788;2024-02-21T04:00:02;11.68;;;3.53;;
24663;SDS011;12791;50.992;13.788;2024-02-21T04:02:30;9.20;;;3.00;;
24663;SDS011;12791;50.992;13.788;2024-02-21T04:04:57;11.43;;;3.38;;
24663;SDS011;12791;50.992;13.788;2024-02-21T04:07:26;8.60;;;3.97;;
24663;SDS011;12791;50.992;13.788;2024-02-21T04:09:53;12.25;;;3.17;;
24663;SDS011;12791;50.992;13.788;2024-02-21T04:12:20;5.20;;;2.67;;
24663;SDS011;12791;50.992;13.788;2024-02-21T04:14:46;7.53;;;3.05;;
24663;SDS011;12791;50.992;13.788;2024-02-21T04:17:13;9.43;;;3.58;;
24663;SDS011;12791;50.992;13.788;2024-02-21T04:19:40;7.78;;;3.25;;
24663;SDS011;12791;50.992;13.788;2024-02-21T04:22:07;6.82;;;3.40;;
24663;SDS011;12791;50.992;13.788;2024-02-21T04:24:35;9.13;;;2.97;;
24663;SDS011;12791;50.992;13.788;2024-02-21T04:27:02;11.15;;;3.45;;
24663;SDS011;12791;50.992;13.788;2024-02-21T04:29:28;8.13;;;3.42;;
24663;SDS011;12791;50.992;13.788;2024-02-21T04:31:55;9.82;;;3.33;;
24663;SDS011;12791;50.992;13.788;2024-02-21T04:34:22;8.38;;;3.45;;
24663;SDS011;12791;50.992;13.788;2024-02-21T04:36:49;13.50;;;3.63;;
24663;SDS011;12791;50.992;13.788;2024-02-21T04:39:15;8.98;;;3.67;;
24663;SDS011;12791;50.992;13.788;2024-02-21T04:41:43;9.07;;;3.50;;
24663;SDS011;12791;50.992;13.788;2024-02-21T04:44:10;10.15;;;3.55;;
24663;SDS011;12791;50.992;13.788;2024-02-21T04:46:36;10.13;;;3.03;;
24663;SDS011;12791;50.992;13.788;2024-02-21T04:49:03;10.63;;;3.15;;
24663;SDS011;12791;50.992;13.788;2024-02-21T04:51:30;11.55;;;3.67;;
24663;SDS011;12791;50.992;13.788;2024-02-21T04:53:56;10.68;;;3.90;;
24663;SDS011;12791;50.992;13.788;2024-02-21T04:56:23;8.73;;;2.83;;
24663;SDS011;12791;50.992;13.788;2024-02-21T04:58:51;7.95;;;2.90;;
24663;SDS011;12791;50.992;13.788;2024-02-21T05:01:18;10.93;;;3.15;;
24663;SDS011;12791;50.992;13.788;2024-02-21T05:03:44;8.40;;;3.50;;
24663;SDS011;12791;50.992;13.788;2024-02-21T05:06:11;8.00;;;3.55;;
24663;SDS011;12791;50.992;13.788;2024-02-21T05:08:37;8.10;;;3.25;;
24663;SDS011;12791;50.992;13.788;2024-02-21T05:11:04;8.40;;;3.63;;
24663;SDS011;12791;50.992;13.788;2024-02-21T05:13:30;8.13;;;2.92;;
24663;SDS011;12791;50.992;13.788;2024-02-21T05:15:58;9.07;;;3.25;;
24663;SDS011;12791;50.992;13.788;2024-02-21T05:18:26;7.95;;;3.03;;
24663;SDS011;12791;50.992;13.788;2024-02-21T05:20:53;7.13;;;3.00;;
24663;SDS011;12791;50.992;13.788;2024-02-21T05:23:20;6.57;;;2.85;;
24663;SDS011;12791;50.992;13.788;2024-02-21T05:25:46;7.65;;;3.40;;
24663;SDS011;12791;50.992;13.788;2024-02-21T05:28:13;9.45;;;3.15;;
24663;SDS011;12791;50.992;13.788;2024-02-21T05:30:39;7.40;;;3.05;;
24663;SDS011;12791;50.992;13.788;2024-02-21T05:33:09;7.53;;;2.88;;
24663;SDS011;12791;50.992;13.788;2024-02-21T05:35:36;10.23;;;3.60;;
24663;SDS011;12791;50.992;13.788;2024-02-21T05:38:03;8.82;;;3.13;;
24663;SDS011;12791;50.992;13.788;2024-02-21T05:40:36;9.40;;;3.92;;
24663;SDS011;12791;50.992;13.788;2024-02-21T05:43:03;7.53;;;3.10;;
24663;SDS011;12791;50.992;13.788;2024-02-21T05:45:29;8.52;;;3.60;;
24663;SDS011;12791;50.992;13.788;2024-02-21T05:47:56;10.52;;;4.13;;
24663;SDS011;12791;50.992;13.788;2024-02-21T05:50:24;8.88;;;3.63;;
24663;SDS011;12791;50.992;13.788;2024-02-21T05:52:51;11.60;;;3.88;;
24663;SDS011;12791;50.992;13.788;2024-02-21T05:55:18;9.35;;;3.15;;
24663;SDS011;12791;50.992;13.788;2024-02-21T05:57:45;8.95;;;3.78;;
24663;SDS011;12791;50.992;13.788;2024-02-21T06:00:12;7.30;;;3.35;;
24663;SDS011;12791;50.992;13.788;2024-02-21T06:02:39;8.10;;;3.22;;
24663;SDS011;12791;50.992;13.788;2024-02-21T06:05:07;10.00;;;3.47;;
24663;SDS011;12791;50.992;13.788;2024-02-21T06:07:35;9.55;;;3.25;;
24663;SDS011;12791;50.992;13.788;2024-02-21T06:10:02;8.57;;;3.22;;
24663;SDS011;12791;50.992;13.788;2024-02-21T06:12:29;8.38;;;3.35;;
24663;SDS011;12791;50.992;13.788;2024-02-21T06:14:55;13.82;;;3.58;;
24663;SDS011;12791;50.992;13.788;2024-02-21T06:17:22;10.35;;;3.50;;
24663;SDS011;12791;50.992;13.788;2024-02-21T06:19:49;12.93;;;3.75;;
24663;SDS011;12791;50.992;13.788;2024-02-21T06:22:15;9.20;;;3.60;;
24663;SDS011;12791;50.992;13.788;2024-02-21T06:24:44;12.25;;;4.03;;
24663;SDS011;12791;50.992;13.788;2024-02-21T06:27:11;8.63;;;3.80;;
24663;SDS011;12791;50.992;13.788;2024-02-21T06:29:39;8.07;;;3.25;;
24663;SDS011;12791;50.992;13.788;2024-02-21T06:32:06;9.35;;;3.58;;
24663;SDS011;12791;50.992;13.788;2024-02-21T06:34:32;5.47;;;3.30;;
24663;SDS011;12791;50.992;13.788;2024-02-21T06:36:59;10.00;;;3.65;;
24663;SDS011;12791;50.992;13.788;2024-02-21T06:39:26;10.60;;;3.70;;
24663;SDS011;12791;50.992;13.788;2024-02-21T06:41:55;13.73;;;3.90;;
24663;SDS011;12791;50.992;13.788;2024-02-21T06:44:21;9.80;;;4.20;;
24663;SDS011;12791;50.992;13.788;2024-02-21T06:46:48;8.50;;;3.63;;
24663;SDS011;12791;50.992;13.788;2024-02-21T06:49:15;11.00;;;4.30;;
24663;SDS011;12791;50.992;13.788;2024-02-21T06:51:41;12.23;;;3.85;;
24663;SDS011;12791;50.992;13.788;2024-02-21T06:54:08;10.25;;;3.60;;
24663;SDS011;12791;50.992;13.788;2024-02-21T06:56:36;9.80;;;3.95;;
24663;SDS011;12791;50.992;13.788;2024-02-21T06:59:04;8.38;;;3.58;;
24663;SDS011;12791;50.992;13.788;2024-02-21T07:01:31;7.38;;;3.22;;
24663;SDS011;12791;50.992;13.788;2024-02-21T07:03:58;8.75;;;3.97;;
24663;SDS011;12791;50.992;13.788;2024-02-21T07:06:24;4.72;;;3.25;;
24663;SDS011;12791;50.992;13.788;2024-02-21T07:08:51;7.00;;;3.30;;
24663;SDS011;12791;50.992;13.788;2024-02-21T07:11:18;4.70;;;2.70;;
24663;SDS011;12791;50.992;13.788;2024-02-21T07:13:44;9.60;;;3.35;;
24663;SDS011;12791;50.992;13.788;2024-02-21T07:16:12;8.65;;;2.88;;
24663;SDS011;12791;50.992;13.788;2024-02-21T07:18:39;6.60;;;3.00;;
24663;SDS011;12791;50.992;13.788;2024-02-21T07:21:05;8.73;;;3.20;;
24663;SDS011;12791;50.992;13.788;2024-02-21T07:23:32;8.20;;;2.72;;
24663;SDS011;12791;50.992;13.788;2024-02-21T07:25:59;8.45;;;2.72;;
24663;SDS011;12791;50.992;13.788;2024-02-21T07:28:25;9.23;;;3.63;;
24663;SDS011;12791;50.992;13.788;2024-02-21T07:30:52;6.60;;;2.45;;
24663;SDS011;12791;50.992;13.788;2024-02-21T07:33:20;9.40;;;3.58;;
24663;SDS011;12791;50.992;13.788;2024-02-21T07:35:46;6.55;;;3.05;;
24663;SDS011;12791;50.992;13.788;2024-02-21T07:38:13;7.35;;;3.15;;
24663;SDS011;12791;50.992;13.788;2024-02-21T07:40:40;5.57;;;2.45;;
24663;SDS011;12791;50.992;13.788;2024-02-21T07:43:07;6.72;;;2.75;;
24663;SDS011;12791;50.992;13.788;2024-02-21T07:45:33;8.77;;;3.78;;
24663;SDS011;12791;50.992;13.788;2024-02-21T07:48:00;11.15;;;3.83;;
24663;SDS011;12791;50.992;13.788;2024-02-21T07:50:28;7.20;;;3.35;;
24663;SDS011;12791;50.992;13.788;2024-02-21T07:52:55;9.60;;;3.45;;
24663;SDS011;12791;50.992;13.788;2024-02-21T07:55:21;9.65;;;3.38;;
24663;SDS011;12791;50.992;13.788;2024-02-21T07:57:48;5.43;;;2.67;;
24663;SDS011;12791;50.992;13.788;2024-02-21T08:00:15;7.35;;;3.30;;
24663;SDS011;12791;50.992;13.788;2024-02-21T08:02:44;6.60;;;2.75;;
24663;SDS011;12791;50.992;13.788;2024-02-21T08:05:11;6.88;;;2.88;;
24663;SDS011;12791;50.992;13.788;2024-02-21T08:07:39;5.82;;;2.65;;
24663;SDS011;12791;50.992;13.788;2024-02-21T08:10:06;7.50;;;2.58;;
24663;SDS011;12791;50.992;13.788;2024-02-21T08:12:34;8.68;;;3.25;;
24663;SDS011;12791;50.992;13.788;2024-02-21T08:15:00;10.52;;;2.85;;
24663;SDS011;12791;50.992;13.788;2024-02-21T08:17:28;9.48;;;2.72;;
24663;SDS011;12791;50.992;13.788;2024-02-21T08:19:55;6.00;;;2.42;;
24663;SDS011;12791;50.992;13.788;2024-02-21T08:22:21;5.40;;;2.50;;
24663;SDS011;12791;50.992;13.788;2024-02-21T08:24:49;10.55;;;3.00;;
24663;SDS011;12791;50.992;13.788;2024-02-21T08:27:16;6.35;;;2.90;;
24663;SDS011;12791;50.992;13.788;2024-02-21T08:29:42;8.23;;;3.13;;
24663;SDS011;12791;50.992;13.788;2024-02-21T08:32:09;7.45;;;3.50;;
24663;SDS011;12791;50.992;13.788;2024-02-21T08:34:35;7.72;;;3.70;;
24663;SDS011;12791;50.992;13.788;2024-02-21T08:37:02;8.45;;;2.60;;
24663;SDS011;12791;50.992;13.788;2024-02-21T08:39:29;6.55;;;2.80;;
24663;SDS011;12791;50.992;13.788;2024-02-21T08:41:57;8.70;;;2.90;;
24663;SDS011;12791;50.992;13.788;2024-02-21T08:44:24;5.25;;;2.75;;
24663;SDS011;12791;50.992;13.788;2024-02-21T08:46:51;6.75;;;2.50;;
24663;SDS011;12791;50.992;13.788;2024-02-21T08:49:18;7.63;;;2.50;;
24663;SDS011;12791;50.992;13.788;2024-02-21T08:51:45;8.27;;;3.15;;
24663;SDS011;12791;50.992;13.788;2024-02-21T08:54:11;4.78;;;2.67;;
24663;SDS011;12791;50.992;13.788;2024-02-21T08:56:38;7.30;;;2.45;;
24663;SDS011;12791;50.992;13.788;2024-02-21T08:59:06;5.43;;;2.67;;
24663;SDS011;12791;50.992;13.788;2024-02-21T09:01:32;7.35;;;2.92;;
24663;SDS011;12791;50.992;13.788;2024-02-21T09:04:00;6.53;;;2.97;;
24663;SDS011;12791;50.992;13.788;2024-02-21T09:06:27;6.40;;;2.83;;
24663;SDS011;12791;50.992;13.788;2024-02-21T09:08:55;7.03;;;2.85;;
24663;SDS011;12791;50.992;13.788;2024-02-21T09:11:22;7.15;;;2.70;;
24663;SDS011;12791;50.992;13.788;2024-02-21T09:13:49;7.03;;;3.13;;
24663;SDS011;12791;50.992;13.788;2024-02-21T09:16:17;7.63;;;2.97;;
24663;SDS011;12791;50.992;13.788;2024-02-21T09:18:43;5.95;;;2.80;;
24663;SDS011;12791;50.992;13.788;2024-02-21T09:21:11;6.20;;;2.58;;
24663;SDS011;12791;50.992;13.788;2024-02-21T09:23:38;7.35;;;2.60;;
24663;SDS011;12791;50.992;13.788;2024-02-21T09:26:05;8.13;;;2.50;;
24663;SDS011;12791;50.992;13.788;2024-02-21T09:28:31;7.15;;;2.67;;
24663;SDS011;12791;50.992;13.788;2024-02-21T09:30:59;5.85;;;2.53;;
24663;SDS011;12791;50.992;13.788;2024-02-21T09:33:28;6.60;;;2.63;;
24663;SDS011;12791;50.992;13.788;2024-02-21T09:35:55;7.00;;;2.78;;
24663;SDS011;12791;50.992;13.788;2024-02-21T09:38:21;5.88;;;2.47;;
24663;SDS011;12791;50.992;13.788;2024-02-21T09:40:51;6.88;;;2.47;;
24663;SDS011;12791;50.992;13.788;2024-02-21T09:43:24;9.70;;;3.28;;
24663;SDS011;12791;50.992;13.788;2024-02-21T09:45:51;5.65;;;2.25;;
24663;SDS011;12791;50.992;13.788;2024-02-21T09:48:25;6.18;;;3.00;;
24663;SDS011;12791;50.992;13.788;2024-02-21T09:51:03;8.25;;;2.67;;
24663;SDS011;12791;50.992;13.788;2024-02-21T09:53:31;7.32;;;3.10;;
24663;SDS011;12791;50.992;13.788;2024-02-21T09:55:58;7.05;;;2.80;;
24663;SDS011;12791;50.992;13.788;2024-02-21T09:58:26;6.15;;;2.47;;
24663;SDS011;12791;50.992;13.788;2024-02-21T10:00:53;3.20;;;2.33;;
24663;SDS011;12791;50.992;13.788;2024-02-21T10:03:19;5.60;;;2.83;;
24663;SDS011;12791;50.992;13.788;2024-02-21T10:05:48;4.53;;;2.00;;
24663;SDS011;12791;50.992;13.788;2024-02-21T10:08:15;7.22;;;3.20;;
24663;SDS011;12791;50.992;13.788;2024-02-21T10:10:43;5.97;;;3.10;;
24663;SDS011;12791;50.992;13.788;2024-02-21T10:13:10;9.70;;;3.42;;
24663;SDS011;12791;50.992;13.788;2024-02-21T10:15:37;6.13;;;2.55;;
24663;SDS011;12791;50.992;13.788;2024-02-21T10:18:04;7.32;;;3.00;;
24663;SDS011;12791;50.992;13.788;2024-02-21T10:20:31;6.75;;;2.55;;
24663;SDS011;12791;50.992;13.788;2024-02-21T10:23:03;7.28;;;3.05;;
24663;SDS011;12791;50.992;13.788;2024-02-21T10:25:33;6.00;;;2.63;;
24663;SDS011;12791;50.992;13.788;2024-02-21T10:28:00;5.85;;;2.97;;
24663;SDS011;12791;50.992;13.788;2024-02-21T10:30:27;7.82;;;2.75;;
24663;SDS011;12791;50.992;13.788;2024-02-21T10:32:54;7.70;;;2.85;;
24663;SDS011;12791;50.992;13.788;2024-02-21T10:35:26;6.30;;;2.63;;
24663;SDS011;12791;50.992;13.788;2024-02-21T10:37:54;7.20;;;2.80;;
24663;SDS011;12791;50.992;13.788;2024-02-21T10:40:22;11.20;;;3.28;;
24663;SDS011;12791;50.992;13.788;2024-02-21T10:42:50;5.15;;;2.67;;
24663;SDS011;12791;50.992;13.788;2024-02-21T10:45:22;7.70;;;2.85;;
24663;SDS011;12791;50.992;13.788;2024-02-21T10:47:55;8.50;;;3.08;;
24663;SDS011;12791;50.992;13.788;2024-02-21T10:50:26;8.02;;;3.55;;
24663;SDS011;12791;50.992;13.788;2024-02-21T10:53:01;8.73;;;2.92;;
24663;SDS011;12791;50.992;13.788;2024-02-21T10:55:37;7.35;;;3.53;;
24663;SDS011;12791;50.992;13.788;2024-02-21T10:58:07;6.68;;;2.90;;
24663;SDS011;12791;50.992;13.788;2024-02-21T11:00:36;5.05;;;2.35;;
24663;SDS011;12791;50.992;13.788;2024-02-21T11:03:04;7.50;;;3.10;;
24663;SDS011;12791;50.992;13.788;2024-02-21T11:05:31;4.43;;;2.70;;
24663;SDS011;12791;50.992;13.788;2024-02-21T11:07:59;8.43;;;2.63;;
24663;SDS011;12791;50.992;13.788;2024-02-21T11:10:26;7.15;;;3.08;;
24663;SDS011;12791;50.992;13.788;2024-02-21T11:13:04;6.10;;;2.70;;
24663;SDS011;12791;50.992;13.788;2024-02-21T11:15:32;7.35;;;3.53;;
24663;SDS011;12791;50.992;13.788;2024-02-21T11:17:59;11.63;;;3.05;;
24663;SDS011;12791;50.992;13.788;2024-02-21T11:20:31;5.20;;;2.50;;
24663;SDS011;12791;50.992;13.788;2024-02-21T11:22:59;6.07;;;2.80;;
24663;SDS011;12791;50.992;13.788;2024-02-21T11:25:26;3.75;;;2.55;;
24663;SDS011;12791;50.992;13.788;2024-02-21T11:28:00;7.20;;;2.75;;
24663;SDS011;12791;50.992;13.788;2024-02-21T11:30:27;5.88;;;2.53;;
24663;SDS011;12791;50.992;13.788;2024-02-21T11:33:02;8.02;;;3.58;;
24663;SDS011;12791;50.992;13.788;2024-02-21T11:35:33;10.15;;;3.10;;
24663;SDS011;12791;50.992;13.788;2024-02-21T11:38:07;6.57;;;2.70;;
24663;SDS011;12791;50.992;13.788;2024-02-21T11:40:35;6.15;;;2.33;;
24663;SDS011;12791;50.992;13.788;2024-02-21T11:43:05;5.30;;;2.63;;
24663;SDS011;12791;50.992;13.788;2024-02-21T11:45:32;7.80;;;2.78;;
24663;SDS011;12791;50.992;13.788;2024-02-21T11:47:58;4.82;;;2.30;;
24663;SDS011;12791;50.992;13.788;2024-02-21T11:50:28;6.13;;;2.42;;
24663;SDS011;12791;50.992;13.788;2024-02-21T11:52:55;4.88;;;2.38;;
24663;SDS011;12791;50.992;13.788;2024-02-21T11:55:21;4.35;;;1.98;;
24663;SDS011;12791;50.992;13.788;2024-02-21T11:57:48;7.18;;;2.28;;
24663;SDS011;12791;50.992;13.788;2024-02-21T12:00:17;5.97;;;2.25;;
24663;SDS011;12791;50.992;13.788;2024-02-21T12:02:46;4.82;;;2.20;;
24663;SDS011;12791;50.992;13.788;2024-02-21T12:05:15;4.40;;;2.00;;
24663;SDS011;12791;50.992;13.788;2024-02-21T12:07:41;4.63;;;2.45;;
24663;SDS011;12791;50.992;13.788;2024-02-21T12:10:09;6.72;;;2.30;;
24663;SDS011;12791;50.992;13.788;2024-02-21T12:12:36;5.25;;;2.42;;
24663;SDS011;12791;50.992;13.788;2024-02-21T12:15:04;6.22;;;2.50;;
24663;SDS011;12791;50.992;13.788;2024-02-21T12:17:33;5.25;;;1.80;;
24663;SDS011;12791;50.992;13.788;2024-02-21T12:20:00;4.95;;;2.17;;
24663;SDS011;12791;50.992;13.788;2024-02-21T12:22:28;4.63;;;1.73;;
24663;SDS011;12791;50.992;13.788;2024-02-21T12:24:57;3.28;;;1.65;;
24663;SDS011;12791;50.992;13.788;2024-02-21T12:27:24;3.42;;;1.88;;
24663;SDS011;12791;50.992;13.788;2024-02-21T12:29:51;3.22;;;1.60;;
24663;SDS011;12791;50.992;13.788;2024-02-21T12:32:18;5.45;;;2.08;;
24663;SDS011;12791;50.992;13.788;2024-02-21T12:34:46;5.15;;;2.08;;
24663;SDS011;12791;50.992;13.788;2024-02-21T12:37:13;4.40;;;1.85;;
24663;SDS011;12791;50.992;13.788;2024-02-21T12:39:40;3.80;;;1.92;;
24663;SDS011;12791;50.992;13.788;2024-02-21T12:42:07;5.43;;;2.42;;
24663;SDS011;12791;50.992;13.788;2024-02-21T12:44:36;4.60;;;2.00;;
24663;SDS011;12791;50.992;13.788;2024-02-21T12:47:03;5.82;;;2.33;;
24663;SDS011;12791;50.992;13.788;2024-02-21T12:49:29;4.40;;;1.90;;
24663;SDS011;12791;50.992;13.788;2024-02-21T12:51:58;5.20;;;2.00;;
24663;SDS011;12791;50.992;13.788;2024-02-21T12:54:25;3.47;;;1.55;;
24663;SDS011;12791;50.992;13.788;2024-02-21T12:56:51;5.43;;;2.55;;
24663;SDS011;12791;50.992;13.788;2024-02-21T12:59:18;5.85;;;2.45;;
24663;SDS011;12791;50.992;13.788;2024-02-21T13:01:45;5.15;;;2.80;;
24663;SDS011;12791;50.992;13.788;2024-02-21T13:04:11;4.38;;;2.67;;
24663;SDS011;12791;50.992;13.788;2024-02-21T13:06:38;7.05;;;2.75;;
24663;SDS011;12791;50.992;13.788;2024-02-21T13:09:06;6.90;;;2.60;;
24663;SDS011;12791;50.992;13.788;2024-02-21T13:11:35;6.30;;;2.78;;
24663;SDS011;12791;50.992;13.788;2024-02-21T13:14:02;5.60;;;2.75;;
24663;SDS011;12791;50.992;13.788;2024-02-21T13:16:29;5.35;;;2.50;;
24663;SDS011;12791;50.992;13.788;2024-02-21T13:18:56;8.55;;;3.30;;
24663;SDS011;12791;50.992;13.788;2024-02-21T13:21:22;6.28;;;2.83;;
24663;SDS011;12791;50.992;13.788;2024-02-21T13:23:49;7.13;;;2.83;;
24663;SDS011;12791;50.992;13.788;2024-02-21T13:26:17;5.63;;;2.58;;
24663;SDS011;12791;50.992;13.788;2024-02-21T13:28:43;7.47;;;3.10;;
24663;SDS011;12791;50.992;13.788;2024-02-21T13:31:10;6.43;;;3.28;;
24663;SDS011;12791;50.992;13.788;2024-02-21T13:33:37;5.20;;;2.78;;
24663;SDS011;12791;50.992;13.788;2024-02-21T13:36:04;10.30;;;2.95;;
24663;SDS011;12791;50.992;13.788;2024-02-21T13:38:31;4.93;;;3.00;;
24663;SDS011;12791;50.992;13.788;2024-02-21T13:40:57;7.80;;;2.90;;
24663;SDS011;12791;50.992;13.788;2024-02-21T13:43:26;6.43;;;2.53;;
24663;SDS011;12791;50.992;13.788;2024-02-21T13:45:55;7.63;;;3.45;;
24663;SDS011;12791;50.992;13.788;2024-02-21T13:48:23;6.15;;;2.90;;
24663;SDS011;12791;50.992;13.788;2024-02-21T13:50:49;6.35;;;2.78;;
24663;SDS011;12791;50.992;13.788;2024-02-21T13:53:16;6.00;;;2.58;;
24663;SDS011;12791;50.992;13.788;2024-02-21T13:55:43;4.32;;;2.40;;
24663;SDS011;12791;50.992;13.788;2024-02-21T13:58:10;6.25;;;2.50;;
24663;SDS011;12791;50.992;13.788;2024-02-21T14:00:38;4.88;;;1.85;;
24663;SDS011;12791;50.992;13.788;2024-02-21T14:03:04;5.47;;;1.73;;
24663;SDS011;12791;50.992;13.788;2024-02-21T14:05:31;4.80;;;1.55;;
24663;SDS011;12791;50.992;13.788;2024-02-21T14:07:57;3.58;;;1.38;;
24663;SDS011;12791;50.992;13.788;2024-02-21T14:10:24;4.25;;;1.40;;
24663;SDS011;12791;50.992;13.788;2024-02-21T14:12:51;4.25;;;1.33;;
24663;SDS011;12791;50.992;13.788;2024-02-21T14:15:17;9.27;;;3.15;;
24663;SDS011;12791;50.992;13.788;2024-02-21T14:17:45;9.05;;;3.35;;
24663;SDS011;12791;50.992;13.788;2024-02-21T14:20:12;13.07;;;3.63;;
24663;SDS011;12791;50.992;13.788;2024-02-21T14:22:40;12.27;;;3.20;;
24663;SDS011;12791;50.992;13.788;2024-02-21T14:25:07;5.22;;;2.45;;
24663;SDS011;12791;50.992;13.788;2024-02-21T14:27:34;3.50;;;2.13;;
24663;SDS011;12791;50.992;13.788;2024-02-21T14:30:02;3.45;;;2.45;;
24663;SDS011;12791;50.992;13.788;2024-02-21T14:32:29;5.45;;;2.90;;
24663;SDS011;12791;50.992;13.788;2024-02-21T14:34:56;6.15;;;2.90;;